createdAt,value
2016-11-26T00:01:07.437Z,8.87
2016-11-26T00:02:22.164Z,8.84
2016-11-26T00:03:36.413Z,8.81
2016-11-26T00:04:50.677Z,8.78
2016-11-26T00:06:04.490Z,8.78
2016-11-26T00:07:18.757Z,8.76
2016-11-26T00:08:36.369Z,8.74
2016-11-26T00:09:51.445Z,8.75
2016-11-26T00:11:06.304Z,8.75
2016-11-26T00:12:21.146Z,8.75
2016-11-26T00:13:35.465Z,8.75
2016-11-26T00:14:50.504Z,8.75
2016-11-26T00:16:04.605Z,8.81
2016-11-26T00:17:19.326Z,8.81
2016-11-26T00:18:33.415Z,8.81
2016-11-26T00:19:47.338Z,8.82
2016-11-26T00:21:05.029Z,8.82
2016-11-26T00:22:19.581Z,8.81
2016-11-26T00:23:34.325Z,8.82
2016-11-26T00:24:48.266Z,8.87
2016-11-26T00:26:02.099Z,8.86
2016-11-26T00:27:17.038Z,8.88
2016-11-26T00:28:31.670Z,8.88
2016-11-26T00:29:45.977Z,8.87
2016-11-26T00:31:00.238Z,8.88
2016-11-26T00:32:14.276Z,8.86
2016-11-26T00:33:28.940Z,8.85
2016-11-26T00:34:43.313Z,8.87
2016-11-26T00:35:57.835Z,8.92
2016-11-26T00:37:12.013Z,8.92
2016-11-26T00:38:26.375Z,8.87
2016-11-26T00:39:55.908Z,8.82
2016-11-26T00:41:10.551Z,8.74
2016-11-26T00:42:24.692Z,8.71
2016-11-26T00:43:38.849Z,8.7
2016-11-26T00:44:53.548Z,8.76
2016-11-26T00:46:07.471Z,8.84
2016-11-26T00:47:23.758Z,8.86
2016-11-26T00:48:38.217Z,8.87
2016-11-26T00:49:52.342Z,8.85
2016-11-26T00:51:06.887Z,8.8
2016-11-26T00:52:21.069Z,8.73
2016-11-26T00:53:36.052Z,8.67
2016-11-26T00:54:49.765Z,8.63
2016-11-26T00:56:04.542Z,8.59
2016-11-26T00:57:19.248Z,8.58
2016-11-26T00:58:33.981Z,8.62
2016-11-26T00:59:48.590Z,8.65
2016-11-26T01:01:02.759Z,8.65
2016-11-26T01:02:17.082Z,8.64
2016-11-26T01:03:31.279Z,8.67
2016-11-26T01:04:45.666Z,8.69
2016-11-26T01:05:59.777Z,8.7
2016-11-26T01:07:13.713Z,8.68
2016-11-26T01:08:28.158Z,8.66
2016-11-26T01:09:42.468Z,8.64
2016-11-26T01:10:56.712Z,8.64
2016-11-26T01:12:11.033Z,8.61
2016-11-26T01:13:25.174Z,8.64
2016-11-26T01:14:39.550Z,8.68
2016-11-26T01:15:53.582Z,8.71
2016-11-26T01:17:08.125Z,8.73
2016-11-26T01:18:22.349Z,8.77
2016-11-26T01:19:36.494Z,8.79
2016-11-26T01:20:51.550Z,8.78
2016-11-26T01:22:06.000Z,8.8
2016-11-26T01:23:20.431Z,8.81
2016-11-26T01:24:34.784Z,8.83
2016-11-26T01:25:49.492Z,8.84
2016-11-26T01:27:03.879Z,8.85
2016-11-26T01:28:18.111Z,8.86
2016-11-26T01:29:33.249Z,8.82
2016-11-26T01:31:02.223Z,8.76
2016-11-26T01:32:16.811Z,8.73
2016-11-26T01:33:31.065Z,8.74
2016-11-26T01:34:45.086Z,8.75
2016-11-26T01:35:59.247Z,8.73
2016-11-26T01:37:13.856Z,8.7
2016-11-26T01:38:30.301Z,8.69
2016-11-26T01:39:44.393Z,8.69
2016-11-26T01:40:58.273Z,8.74
2016-11-26T01:42:12.789Z,8.81
2016-11-26T01:43:26.902Z,8.85
2016-11-26T01:44:41.626Z,8.86
2016-11-26T01:45:55.742Z,8.89
2016-11-26T01:47:10.333Z,8.92
2016-11-26T01:48:25.265Z,8.96
2016-11-26T01:49:39.903Z,8.98
2016-11-26T01:50:54.232Z,9
2016-11-26T01:52:08.240Z,8.96
2016-11-26T01:53:37.931Z,8.9
2016-11-26T01:54:52.952Z,8.84
2016-11-26T01:56:07.443Z,8.77
2016-11-26T01:57:21.980Z,8.75
2016-11-26T01:58:36.118Z,8.74
2016-11-26T01:59:50.013Z,8.76
2016-11-26T02:01:04.838Z,8.75
2016-11-26T02:02:19.175Z,8.77
2016-11-26T02:03:33.618Z,8.74
2016-11-26T02:04:48.152Z,8.75
2016-11-26T02:06:02.266Z,8.77
2016-11-26T02:07:16.579Z,8.75
2016-11-26T02:08:31.689Z,8.73
2016-11-26T02:09:45.783Z,8.71
2016-11-26T02:10:59.824Z,8.73
2016-11-26T02:12:14.003Z,8.78
2016-11-26T02:13:28.399Z,8.84
2016-11-26T02:14:42.581Z,8.9
2016-11-26T02:15:57.203Z,8.95
2016-11-26T02:17:11.768Z,8.95
2016-11-26T02:18:25.770Z,8.94
2016-11-26T02:19:39.855Z,8.92
2016-11-26T02:20:54.323Z,8.93
2016-11-26T02:22:08.722Z,8.99
2016-11-26T02:23:22.804Z,9.04
2016-11-26T02:24:37.208Z,9.07
2016-11-26T02:25:51.932Z,9.07
2016-11-26T02:27:06.263Z,9.07
2016-11-26T02:28:20.869Z,9.07
2016-11-26T02:29:34.918Z,9.07
2016-11-26T02:30:49.215Z,9.08
2016-11-26T02:32:03.553Z,9.07
2016-11-26T02:33:17.940Z,9.08
2016-11-26T02:34:32.157Z,9.09
2016-11-26T02:35:46.299Z,9.1
2016-11-26T02:37:00.655Z,9.05
2016-11-26T02:38:14.874Z,9.03
2016-11-26T02:39:29.295Z,8.98
2016-11-26T02:40:43.519Z,8.93
2016-11-26T02:41:57.951Z,8.88
2016-11-26T02:43:11.973Z,8.89
2016-11-26T02:44:26.168Z,8.89
2016-11-26T02:45:40.658Z,8.9
2016-11-26T02:46:54.444Z,8.87
2016-11-26T02:48:08.918Z,8.86
2016-11-26T02:49:22.935Z,8.84
2016-11-26T02:50:37.184Z,8.81
2016-11-26T02:51:51.471Z,8.83
2016-11-26T02:53:05.450Z,8.84
2016-11-26T02:54:19.472Z,8.8
2016-11-26T02:55:35.553Z,8.76
2016-11-26T02:56:50.208Z,8.7
2016-11-26T02:58:05.083Z,8.67
2016-11-26T02:59:18.964Z,8.66
2016-11-26T03:00:33.399Z,8.67
2016-11-26T03:01:47.507Z,8.7
2016-11-26T03:03:02.173Z,8.72
2016-11-26T03:04:16.197Z,8.74
2016-11-26T03:05:30.581Z,8.69
2016-11-26T03:06:44.793Z,8.69
2016-11-26T03:07:58.624Z,8.73
2016-11-26T03:09:13.163Z,8.75
2016-11-26T03:10:27.490Z,8.77
2016-11-26T03:11:41.541Z,8.75
2016-11-26T03:15:38.798Z,8.68
2016-11-26T03:16:53.247Z,8.64
2016-11-26T03:18:06.981Z,8.63
2016-11-26T03:19:20.903Z,8.65
2016-11-26T03:20:34.869Z,8.67
2016-11-26T03:21:49.748Z,8.69
2016-11-26T03:23:04.481Z,8.71
2016-11-26T03:24:18.496Z,8.73
2016-11-26T03:25:32.883Z,8.72
2016-11-26T03:26:47.262Z,8.68
2016-11-26T03:28:16.030Z,8.64
2016-11-26T03:29:31.773Z,8.57
2016-11-26T03:30:45.987Z,8.53
2016-11-26T03:32:00.299Z,8.5
2016-11-26T03:33:14.339Z,8.5
2016-11-26T03:34:28.515Z,8.53
2016-11-26T03:38:40.395Z,8.73
2016-11-26T03:40:09.161Z,8.78
2016-11-26T03:41:38.567Z,8.85
2016-11-26T03:42:52.584Z,8.89
2016-11-26T03:44:06.629Z,8.89
2016-11-26T03:45:20.677Z,8.84
2016-11-26T03:46:34.992Z,8.8
2016-11-26T03:47:49.376Z,8.83
2016-11-26T03:49:03.715Z,8.86
2016-11-26T03:50:17.736Z,8.88
2016-11-26T03:51:31.753Z,8.91
2016-11-26T03:53:00.817Z,8.93
2016-11-26T03:54:15.223Z,8.94
2016-11-26T03:55:29.246Z,8.92
2016-11-26T03:56:43.283Z,8.85
2016-11-26T03:58:12.072Z,8.74
2016-11-26T03:59:26.785Z,8.7
2016-11-26T04:00:41.014Z,8.7
2016-11-26T04:01:55.406Z,8.69
2016-11-26T04:03:09.658Z,8.7
2016-11-26T04:04:24.050Z,8.7
2016-11-26T04:08:35.989Z,8.63
2016-11-26T04:09:50.083Z,8.6
2016-11-26T04:11:04.776Z,8.56
2016-11-26T04:12:18.816Z,8.54
2016-11-26T04:13:32.969Z,8.54
2016-11-26T04:14:47.027Z,8.59
2016-11-26T04:16:01.229Z,8.63
2016-11-26T04:17:15.988Z,8.7
2016-11-26T04:18:33.041Z,8.78
2016-11-26T04:20:02.562Z,8.82
2016-11-26T04:21:16.666Z,8.82
2016-11-26T04:22:31.861Z,8.76
2016-11-26T04:23:45.894Z,8.75
2016-11-26T04:25:14.707Z,8.73
2016-11-26T04:26:29.072Z,8.73
2016-11-26T04:27:43.471Z,8.7
2016-11-26T04:28:58.154Z,8.65
2016-11-26T04:30:12.241Z,8.62
2016-11-26T04:31:26.621Z,8.61
2016-11-26T04:32:40.692Z,8.63
2016-11-26T04:33:55.094Z,8.61
2016-11-26T04:35:09.794Z,8.62
2016-11-26T04:36:23.892Z,8.62
2016-11-26T04:37:37.977Z,8.62
2016-11-26T04:38:51.994Z,8.62
2016-11-26T04:40:06.061Z,8.57
2016-11-26T04:41:21.129Z,8.56
2016-11-26T04:42:35.559Z,8.51
2016-11-26T04:43:49.601Z,8.44
2016-11-26T04:45:03.658Z,8.37
2016-11-26T04:46:17.763Z,8.35
2016-11-26T04:47:32.425Z,8.37
2016-11-26T04:48:46.624Z,8.41
2016-11-26T04:50:00.993Z,8.42
2016-11-26T04:51:15.123Z,8.41
2016-11-26T04:52:29.240Z,8.42
2016-11-26T04:53:43.899Z,8.39
2016-11-26T04:54:57.926Z,8.39
2016-11-26T04:56:12.303Z,8.39
2016-11-26T04:57:26.375Z,8.41
2016-11-26T04:58:40.439Z,8.43
2016-11-26T04:59:55.082Z,8.41
2016-11-26T05:01:09.119Z,8.41
2016-11-26T05:02:23.171Z,8.37
2016-11-26T05:03:38.337Z,8.35
2016-11-26T05:04:52.736Z,8.33
2016-11-26T05:06:07.424Z,8.36
2016-11-26T05:07:21.450Z,8.36
2016-11-26T05:08:35.482Z,8.32
2016-11-26T05:09:49.847Z,8.31
2016-11-26T05:11:04.559Z,8.31
2016-11-26T05:12:19.304Z,8.33
2016-11-26T05:13:33.730Z,8.33
2016-11-26T05:14:48.125Z,8.33
2016-11-26T05:16:02.548Z,8.33
2016-11-26T05:17:16.576Z,8.3
2016-11-26T05:18:31.240Z,8.29
2016-11-26T05:20:00.043Z,8.3
2016-11-26T05:21:14.105Z,8.3
2016-11-26T05:22:28.163Z,8.31
2016-11-26T05:23:42.892Z,8.31
2016-11-26T05:24:57.260Z,8.31
2016-11-26T05:26:11.284Z,8.31
2016-11-26T05:27:25.410Z,8.34
2016-11-26T05:30:09.554Z,8.41
2016-11-26T05:31:23.496Z,8.41
2016-11-26T05:32:52.281Z,8.39
2016-11-26T05:34:06.286Z,8.36
2016-11-26T05:38:50.986Z,8.37
2016-11-26T05:40:04.921Z,8.41
2016-11-26T05:41:19.401Z,8.42
2016-11-26T05:42:33.374Z,8.4
2016-11-26T05:43:47.903Z,8.39
2016-11-26T05:45:02.015Z,8.37
2016-11-26T05:46:15.949Z,8.37
2016-11-26T05:47:30.446Z,8.4
2016-11-26T05:48:44.826Z,8.42
2016-11-26T05:49:58.868Z,8.41
2016-11-26T05:51:12.870Z,8.36
2016-11-26T05:52:26.955Z,8.35
2016-11-26T05:53:41.272Z,8.33
2016-11-26T05:54:55.643Z,8.31
2016-11-26T05:58:37.790Z,8.27
2016-11-26T05:59:52.153Z,8.28
2016-11-26T06:01:06.995Z,8.28
2016-11-26T06:02:21.066Z,8.28
2016-11-26T06:03:35.145Z,8.29
2016-11-26T06:04:49.071Z,8.34
2016-11-26T06:06:03.424Z,8.41
2016-11-26T06:07:18.062Z,8.42
2016-11-26T06:08:31.960Z,8.42
2016-11-26T06:09:46.115Z,8.44
2016-11-26T06:11:00.211Z,8.47
2016-11-26T06:12:14.722Z,8.45
2016-11-26T06:13:29.202Z,8.47
2016-11-26T06:14:43.471Z,8.49
2016-11-26T06:15:57.287Z,8.52
2016-11-26T06:17:11.674Z,8.55
2016-11-26T06:18:26.152Z,8.59
2016-11-26T06:19:40.455Z,8.63
2016-11-26T06:20:55.096Z,8.65
2016-11-26T06:22:09.431Z,8.64
2016-11-26T06:23:23.358Z,8.64
2016-11-26T06:24:37.584Z,8.61
2016-11-26T06:25:51.599Z,8.61
2016-11-26T06:27:05.956Z,8.6
2016-11-26T06:28:20.320Z,8.6
2016-11-26T06:29:34.461Z,8.61
2016-11-26T06:30:49.047Z,8.56
2016-11-26T06:32:02.987Z,8.55
2016-11-26T06:33:17.756Z,8.56
2016-11-26T06:34:32.001Z,8.55
2016-11-26T06:35:46.291Z,8.54
2016-11-26T06:37:01.017Z,8.54
2016-11-26T06:38:15.219Z,8.56
2016-11-26T06:39:29.584Z,8.58
2016-11-26T06:40:43.701Z,8.59
2016-11-26T06:41:57.780Z,8.59
2016-11-26T06:43:12.268Z,8.59
2016-11-26T06:44:26.488Z,8.54
2016-11-26T06:45:41.073Z,8.5
2016-11-26T06:46:55.554Z,8.5
2016-11-26T06:48:10.016Z,8.52
2016-11-26T06:49:24.606Z,8.51
2016-11-26T06:50:38.419Z,8.5
2016-11-26T06:51:53.119Z,8.47
2016-11-26T06:53:07.362Z,8.43
2016-11-26T06:54:21.826Z,8.37
2016-11-26T06:55:38.323Z,8.37
2016-11-26T06:56:52.717Z,8.36
2016-11-26T06:58:06.712Z,8.35
2016-11-26T06:59:21.032Z,8.33
2016-11-26T07:00:34.984Z,8.3
2016-11-26T07:01:49.465Z,8.32
2016-11-26T07:03:03.592Z,8.34
2016-11-26T07:04:17.830Z,8.36
2016-11-26T07:05:32.341Z,8.37
2016-11-26T07:06:47.198Z,8.4
2016-11-26T07:08:01.893Z,8.38
2016-11-26T07:09:16.159Z,8.37
2016-11-26T07:10:30.385Z,8.34
2016-11-26T07:11:44.527Z,8.3
2016-11-26T07:13:28.961Z,8.26
2016-11-26T07:14:43.468Z,8.29
2016-11-26T07:15:57.579Z,8.28
2016-11-26T07:17:11.461Z,8.29
2016-11-26T07:18:25.751Z,8.28
2016-11-26T07:19:45.108Z,8.25
2016-11-26T07:21:12.050Z,8.18
2016-11-26T07:22:26.290Z,8.11
2016-11-26T07:23:40.268Z,8.02
2016-11-26T07:24:54.287Z,7.99
2016-11-26T07:26:10.420Z,7.99
2016-11-26T07:27:25.057Z,7.99
2016-11-26T07:28:40.657Z,7.98
2016-11-26T07:29:55.417Z,7.99
2016-11-26T07:31:09.950Z,8.01
2016-11-26T07:32:24.443Z,8.02
2016-11-26T07:33:38.726Z,8.04
2016-11-26T07:34:52.856Z,8.05
2016-11-26T07:36:07.431Z,8.09
2016-11-26T07:37:21.229Z,8.09
2016-11-26T07:38:35.267Z,8.11
2016-11-26T07:39:49.458Z,8.09
2016-11-26T07:41:03.531Z,8.05
2016-11-26T07:42:17.716Z,8
2016-11-26T07:43:31.857Z,7.95
2016-11-26T07:44:46.238Z,7.93
2016-11-26T07:46:01.006Z,7.9
2016-11-26T07:47:15.688Z,7.87
2016-11-26T07:48:30.048Z,7.86
2016-11-26T07:49:44.246Z,7.87
2016-11-26T07:50:59.154Z,7.88
2016-11-26T07:52:14.142Z,7.9
2016-11-26T07:53:28.090Z,7.9
2016-11-26T07:54:42.819Z,7.9
2016-11-26T07:55:56.644Z,7.88
2016-11-26T07:57:11.880Z,7.86
2016-11-26T07:58:26.201Z,7.87
2016-11-26T07:59:40.201Z,7.86
2016-11-26T08:00:54.442Z,7.84
2016-11-26T08:02:09.284Z,7.81
2016-11-26T08:03:25.339Z,7.79
2016-11-26T08:04:39.703Z,7.8
2016-11-26T08:05:54.000Z,7.78
2016-11-26T08:07:07.865Z,7.75
2016-11-26T08:08:22.244Z,7.74
2016-11-26T08:09:36.943Z,7.75
2016-11-26T08:10:50.897Z,7.76
2016-11-26T08:12:05.106Z,7.76
2016-11-26T08:13:21.581Z,7.8
2016-11-26T08:14:35.783Z,7.8
2016-11-26T08:15:49.932Z,7.79
2016-11-26T08:17:03.879Z,7.76
2016-11-26T08:18:17.797Z,7.72
2016-11-26T08:19:31.506Z,7.72
2016-11-26T08:20:45.220Z,7.7
2016-11-26T08:21:59.943Z,7.71
2016-11-26T08:23:14.042Z,7.69
2016-11-26T08:24:28.011Z,7.7
2016-11-26T08:25:41.972Z,7.71
2016-11-26T08:26:56.003Z,7.76
2016-11-26T08:28:10.390Z,7.82
2016-11-26T08:29:24.518Z,7.85
2016-11-26T08:30:38.550Z,7.89
2016-11-26T08:31:52.534Z,7.94
2016-11-26T08:33:06.664Z,8
2016-11-26T08:34:20.831Z,8.06
2016-11-26T08:35:34.961Z,8.14
2016-11-26T08:36:49.649Z,8.18
2016-11-26T08:38:04.005Z,8.22
2016-11-26T08:39:18.104Z,8.25
2016-11-26T08:40:32.252Z,8.28
2016-11-26T08:41:46.316Z,8.27
2016-11-26T08:43:01.078Z,8.31
2016-11-26T08:44:15.122Z,8.35
2016-11-26T08:45:28.953Z,8.29
2016-11-26T08:46:43.129Z,8.23
2016-11-26T08:47:57.001Z,8.2
2016-11-26T08:49:11.343Z,8.23
2016-11-26T08:50:25.580Z,8.21
2016-11-26T08:51:39.400Z,8.2
2016-11-26T08:52:53.932Z,8.2
2016-11-26T08:54:08.268Z,8.21
2016-11-26T08:55:22.501Z,8.2
2016-11-26T08:56:37.193Z,8.23
2016-11-26T08:57:51.652Z,8.24
2016-11-26T08:59:06.399Z,8.26
2016-11-26T09:00:20.879Z,8.27
2016-11-26T09:01:35.183Z,8.25
2016-11-26T09:02:49.761Z,8.27
2016-11-26T09:04:04.028Z,8.32
2016-11-26T09:05:18.658Z,8.35
2016-11-26T09:06:32.648Z,8.37
2016-11-26T09:07:46.793Z,8.43
2016-11-26T09:09:01.069Z,8.45
2016-11-26T09:10:15.574Z,8.44
2016-11-26T09:11:29.966Z,8.41
2016-11-26T09:12:44.355Z,8.31
2016-11-26T09:13:58.928Z,8.27
2016-11-26T09:15:13.123Z,8.27
2016-11-26T09:16:27.419Z,8.3
2016-11-26T09:17:41.632Z,8.33
2016-11-26T09:18:56.190Z,8.29
2016-11-26T09:20:10.081Z,8.26
2016-11-26T09:21:24.001Z,8.24
2016-11-26T09:22:38.386Z,8.22
2016-11-26T09:23:53.447Z,8.21
2016-11-26T09:25:07.428Z,8.22
2016-11-26T09:26:21.453Z,8.25
2016-11-26T09:27:35.327Z,8.24
2016-11-26T09:28:49.846Z,8.21
2016-11-26T09:30:06.470Z,8.17
2016-11-26T09:31:20.493Z,8.11
2016-11-26T09:32:35.050Z,8.06
2016-11-26T09:33:49.470Z,8.04
2016-11-26T09:35:03.760Z,8.01
2016-11-26T09:36:18.589Z,8.02
2016-11-26T09:37:32.925Z,8.02
2016-11-26T09:38:47.365Z,8.03
2016-11-26T09:40:02.821Z,8.02
2016-11-26T09:41:17.057Z,8.07
2016-11-26T09:42:31.630Z,8.06
2016-11-26T09:43:46.400Z,8
2016-11-26T09:45:00.724Z,7.98
2016-11-26T09:46:14.987Z,7.94
2016-11-26T09:47:29.009Z,7.93
2016-11-26T09:48:43.126Z,7.93
2016-11-26T09:49:57.500Z,7.95
2016-11-26T09:51:12.218Z,8.01
2016-11-26T09:52:26.037Z,8.14
2016-11-26T09:53:39.771Z,8.27
2016-11-26T09:54:54.531Z,8.41
2016-11-26T09:56:08.619Z,8.47
2016-11-26T09:57:23.303Z,8.5
2016-11-26T09:58:37.271Z,8.51
2016-11-26T09:59:53.188Z,8.51
2016-11-26T10:01:08.000Z,8.5
2016-11-26T10:02:22.103Z,8.56
2016-11-26T10:03:36.222Z,8.58
2016-11-26T10:04:50.574Z,8.63
2016-11-26T10:06:06.555Z,8.68
2016-11-26T10:07:20.914Z,8.69
2016-11-26T10:08:34.929Z,8.76
2016-11-26T10:09:49.638Z,8.84
2016-11-26T10:11:03.950Z,8.91
2016-11-26T10:12:18.141Z,9
2016-11-26T10:13:33.200Z,9.05
2016-11-26T10:14:47.572Z,9.03
2016-11-26T10:16:01.953Z,9.01
2016-11-26T10:17:15.931Z,8.99
2016-11-26T10:18:29.736Z,8.93
2016-11-26T10:19:44.022Z,8.89
2016-11-26T10:20:58.182Z,8.92
2016-11-26T10:22:12.540Z,8.99
2016-11-26T10:23:26.306Z,9.06
2016-11-26T10:24:41.431Z,9.1
2016-11-26T10:25:56.385Z,9.17
2016-11-26T10:27:10.558Z,9.24
2016-11-26T10:28:24.595Z,9.24
2016-11-26T10:29:38.736Z,9.23
2016-11-26T10:30:53.315Z,9.24
2016-11-26T10:32:07.919Z,9.24
2016-11-26T10:33:22.763Z,9.23
2016-11-26T10:34:36.778Z,9.24
2016-11-26T10:35:51.104Z,9.27
2016-11-26T10:37:05.740Z,9.3
2016-11-26T10:38:20.421Z,9.33
2016-11-26T10:39:34.462Z,9.37
2016-11-26T10:40:49.057Z,9.42
2016-11-26T10:42:03.822Z,9.51
2016-11-26T10:43:17.789Z,9.52
2016-11-26T10:44:32.029Z,9.52
2016-11-26T10:45:46.613Z,9.56
2016-11-26T10:47:03.081Z,9.6
2016-11-26T10:48:17.836Z,9.62
2016-11-26T10:49:32.573Z,9.65
2016-11-26T10:50:46.917Z,9.68
2016-11-26T10:52:01.350Z,9.72
2016-11-26T10:53:16.121Z,9.74
2016-11-26T10:54:30.643Z,9.78
2016-11-26T10:55:45.303Z,9.85
2016-11-26T10:57:01.573Z,9.93
2016-11-26T10:58:16.002Z,9.96
2016-11-26T10:59:30.258Z,10
2016-11-26T11:00:44.604Z,9.99
2016-11-26T11:01:59.142Z,9.96
2016-11-26T11:03:13.598Z,9.95
2016-11-26T11:04:28.161Z,9.94
2016-11-26T11:05:43.068Z,9.92
2016-11-26T11:06:57.395Z,9.91
2016-11-26T11:08:11.914Z,9.91
2016-11-26T11:09:26.459Z,9.96
2016-11-26T11:10:40.979Z,10.02
2016-11-26T11:11:55.278Z,10.1
2016-11-26T11:13:09.789Z,10.13
2016-11-26T11:14:24.182Z,10.12
2016-11-26T11:15:38.986Z,10.07
2016-11-26T11:16:55.144Z,10.01
2016-11-26T11:18:27.774Z,9.95
2016-11-26T11:19:53.098Z,9.93
2016-11-26T11:21:20.006Z,9.9
2016-11-26T11:22:36.219Z,9.84
2016-11-26T11:24:05.027Z,9.87
2016-11-26T11:25:19.433Z,9.82
2016-11-26T11:26:34.341Z,9.78
2016-11-26T11:27:48.570Z,9.75
2016-11-26T11:29:04.607Z,9.79
2016-11-26T11:30:19.081Z,9.84
2016-11-26T11:31:33.783Z,9.93
2016-11-26T11:32:48.870Z,10
2016-11-26T11:34:03.243Z,10.08
2016-11-26T11:35:17.999Z,10.13
2016-11-26T11:36:32.309Z,10.14
2016-11-26T11:37:46.649Z,10.13
2016-11-26T11:39:00.964Z,10.14
2016-11-26T11:40:15.737Z,10.17
2016-11-26T11:41:30.415Z,10.18
2016-11-26T11:42:44.797Z,10.21
2016-11-26T11:43:59.203Z,10.22
2016-11-26T11:45:13.609Z,10.2
2016-11-26T11:46:28.687Z,10.21
2016-11-26T11:47:43.162Z,10.24
2016-11-26T11:48:58.276Z,10.28
2016-11-26T11:50:13.260Z,10.28
2016-11-26T11:51:28.307Z,10.24
2016-11-26T11:52:42.947Z,10.26
2016-11-26T11:53:57.130Z,10.26
2016-11-26T11:55:11.853Z,10.26
2016-11-26T11:56:26.057Z,10.28
2016-11-26T11:57:40.860Z,10.3
2016-11-26T11:58:54.924Z,10.3
2016-11-26T12:00:10.527Z,10.29
2016-11-26T12:01:25.003Z,10.3
2016-11-26T12:02:39.460Z,10.26
2016-11-26T12:03:53.893Z,10.18
2016-11-26T12:05:10.520Z,10.13
2016-11-26T12:06:25.194Z,10.09
2016-11-26T12:07:39.448Z,10.09
2016-11-26T12:08:54.070Z,10.11
2016-11-26T12:10:08.910Z,10.17
2016-11-26T12:11:23.144Z,10.22
2016-11-26T12:12:37.266Z,10.25
2016-11-26T12:13:52.910Z,10.29
2016-11-26T12:15:07.851Z,10.34
2016-11-26T12:16:22.777Z,10.44
2016-11-26T12:17:37.452Z,10.5
2016-11-26T12:18:54.018Z,10.55
2016-11-26T12:20:08.820Z,10.56
2016-11-26T12:21:23.382Z,10.57
2016-11-26T12:22:37.630Z,10.59
2016-11-26T12:23:52.369Z,10.65
2016-11-26T12:25:06.412Z,10.64
2016-11-26T12:26:21.036Z,10.62
2016-11-26T12:27:36.533Z,10.63
2016-11-26T12:28:51.086Z,10.67
2016-11-26T12:30:05.302Z,10.71
2016-11-26T12:31:19.316Z,10.75
2016-11-26T12:32:33.613Z,10.78
2016-11-26T12:33:48.875Z,10.75
2016-11-26T12:35:03.249Z,10.79
2016-11-26T12:36:17.271Z,10.83
2016-11-26T12:37:31.912Z,10.84
2016-11-26T12:38:46.067Z,10.81
2016-11-26T12:40:00.813Z,10.81
2016-11-26T12:41:15.794Z,10.83
2016-11-26T12:42:30.217Z,10.86
2016-11-26T12:43:43.963Z,10.87
2016-11-26T12:44:58.586Z,10.85
2016-11-26T12:46:13.338Z,10.86
2016-11-26T12:47:29.188Z,10.88
2016-11-26T12:48:43.677Z,10.89
2016-11-26T12:49:57.805Z,10.9
2016-11-26T12:51:11.909Z,10.89
2016-11-26T12:52:26.966Z,10.91
2016-11-26T12:53:41.413Z,10.91
2016-11-26T12:54:55.619Z,10.92
2016-11-26T12:56:10.640Z,10.95
2016-11-26T12:57:25.804Z,10.97
2016-11-26T12:58:40.202Z,10.99
2016-11-26T12:59:54.614Z,10.98
2016-11-26T13:01:09.758Z,10.99
2016-11-26T13:02:23.900Z,10.97
2016-11-26T13:03:38.501Z,10.95
2016-11-26T13:04:53.266Z,10.91
2016-11-26T13:06:07.876Z,10.91
2016-11-26T13:07:22.406Z,10.89
2016-11-26T13:08:51.540Z,10.91
2016-11-26T13:10:05.877Z,10.92
2016-11-26T13:11:21.224Z,10.93
2016-11-26T13:12:35.787Z,10.95
2016-11-26T13:13:50.026Z,10.97
2016-11-26T13:15:03.954Z,10.96
2016-11-26T13:16:18.777Z,10.98
2016-11-26T13:17:33.726Z,10.99
2016-11-26T13:18:47.509Z,10.99
2016-11-26T13:20:01.537Z,10.99
2016-11-26T13:21:15.364Z,10.99
2016-11-26T13:22:31.584Z,10.97
2016-11-26T13:23:45.829Z,10.93
2016-11-26T13:25:00.433Z,10.9
2016-11-26T13:26:15.048Z,10.89
2016-11-26T13:27:29.434Z,10.9
2016-11-26T13:28:43.878Z,10.88
2016-11-26T13:29:58.204Z,10.83
2016-11-26T13:31:12.462Z,10.83
2016-11-26T13:32:26.400Z,10.87
2016-11-26T13:33:40.593Z,10.89
2016-11-26T13:34:56.657Z,10.84
2016-11-26T13:36:11.463Z,10.82
2016-11-26T13:37:25.809Z,10.8
2016-11-26T13:38:40.676Z,10.81
2016-11-26T13:39:54.532Z,10.84
2016-11-26T13:41:08.909Z,10.87
2016-11-26T13:42:23.452Z,10.89
2016-11-26T13:43:38.635Z,10.92
2016-11-26T13:44:53.766Z,10.93
2016-11-26T13:46:11.876Z,10.96
2016-11-26T13:47:31.726Z,10.96
2016-11-26T13:48:53.400Z,10.93
2016-11-26T13:50:09.407Z,10.92
2016-11-26T13:51:24.526Z,10.89
2016-11-26T13:52:39.305Z,10.84
2016-11-26T13:54:07.938Z,10.8
2016-11-26T13:55:23.163Z,10.76
2016-11-26T13:56:37.573Z,10.76
2016-11-26T13:57:52.063Z,10.75
2016-11-26T13:59:06.338Z,10.67
2016-11-26T14:00:21.934Z,10.59
2016-11-26T14:01:53.997Z,10.5
2016-11-26T14:03:07.917Z,10.45
2016-11-26T14:04:22.927Z,10.39
2016-11-26T14:05:37.029Z,10.39
2016-11-26T14:06:52.368Z,10.34
2016-11-26T14:08:06.189Z,10.32
2016-11-26T14:09:20.144Z,10.31
2016-11-26T14:10:37.315Z,10.33
2016-11-26T14:11:52.328Z,10.38
2016-11-26T14:13:08.355Z,10.45
2016-11-26T14:14:23.078Z,10.51
2016-11-26T14:15:38.985Z,10.58
2016-11-26T14:16:57.927Z,10.58
2016-11-26T14:18:13.309Z,10.58
2016-11-26T14:19:28.588Z,10.58
2016-11-26T14:20:44.173Z,10.57
2016-11-26T14:21:59.761Z,10.54
2016-11-26T14:23:15.176Z,10.52
2016-11-26T14:24:30.300Z,10.51
2016-11-26T14:25:44.562Z,10.47
2016-11-26T14:26:59.779Z,10.44
2016-11-26T14:28:15.134Z,10.44
2016-11-26T14:29:30.138Z,10.42
2016-11-26T14:30:45.705Z,10.39
2016-11-26T14:32:00.019Z,10.38
2016-11-26T14:33:14.534Z,10.41
2016-11-26T14:34:30.838Z,10.4
2016-11-26T14:35:48.878Z,10.43
2016-11-26T14:37:03.577Z,10.49
2016-11-26T14:38:18.664Z,10.51
2016-11-26T14:39:32.887Z,10.55
2016-11-26T14:40:50.390Z,10.59
2016-11-26T14:42:05.157Z,10.6
2016-11-26T14:43:19.323Z,10.64
2016-11-26T14:44:34.539Z,10.66
2016-11-26T14:45:49.521Z,10.67
2016-11-26T14:47:04.176Z,10.69
2016-11-26T14:48:19.354Z,10.7
2016-11-26T14:49:38.171Z,10.72
2016-11-26T14:50:53.023Z,10.76
2016-11-26T14:52:07.690Z,10.79
2016-11-26T14:53:22.239Z,10.78
2016-11-26T14:54:37.025Z,10.79
2016-11-26T14:55:51.446Z,10.78
2016-11-26T14:57:05.329Z,10.78
2016-11-26T14:58:19.544Z,10.79
2016-11-26T14:59:33.974Z,10.82
2016-11-26T15:00:48.388Z,10.84
2016-11-26T15:02:03.057Z,10.85
2016-11-26T15:03:17.199Z,10.83
2016-11-26T15:04:32.326Z,10.82
2016-11-26T15:05:46.903Z,10.81
2016-11-26T15:07:01.345Z,10.82
2016-11-26T15:08:16.383Z,10.83
2016-11-26T15:09:32.295Z,10.84
2016-11-26T15:10:46.956Z,10.83
2016-11-26T15:12:01.762Z,10.84
2016-11-26T15:13:16.067Z,10.82
2016-11-26T15:14:31.034Z,10.81
2016-11-26T15:15:45.188Z,10.8
2016-11-26T15:16:59.685Z,10.77
2016-11-26T15:18:13.597Z,10.77
2016-11-26T15:19:28.522Z,10.76
2016-11-26T15:20:43.231Z,10.73
2016-11-26T15:21:57.298Z,10.73
2016-11-26T15:23:11.635Z,10.69
2016-11-26T15:24:40.775Z,10.69
2016-11-26T15:25:55.430Z,10.67
2016-11-26T15:27:09.343Z,10.69
2016-11-26T15:28:23.605Z,10.67
2016-11-26T15:29:37.708Z,10.66
2016-11-26T15:31:07.321Z,10.66
2016-11-26T15:32:22.121Z,10.65
2016-11-26T15:33:37.456Z,10.64
2016-11-26T15:34:52.156Z,10.66
2016-11-26T15:36:06.139Z,10.67
2016-11-26T15:37:21.095Z,10.71
2016-11-26T15:38:35.938Z,10.73
2016-11-26T15:39:50.207Z,10.75
2016-11-26T15:41:04.248Z,10.77
2016-11-26T15:42:18.998Z,10.79
2016-11-26T15:43:33.491Z,10.8
2016-11-26T15:44:48.675Z,10.81
2016-11-26T15:46:03.121Z,10.84
2016-11-26T15:47:17.546Z,10.86
2016-11-26T15:48:31.840Z,10.87
2016-11-26T15:49:45.895Z,10.88
2016-11-26T15:51:00.883Z,10.88
2016-11-26T15:52:16.167Z,10.9
2016-11-26T15:53:30.511Z,10.92
2016-11-26T15:54:45.386Z,10.95
2016-11-26T15:55:59.390Z,10.95
2016-11-26T15:57:13.601Z,10.98
2016-11-26T15:58:30.276Z,10.98
2016-11-26T15:59:44.822Z,10.99
2016-11-26T16:00:59.489Z,11
2016-11-26T16:02:13.970Z,10.99
2016-11-26T16:03:29.154Z,10.99
2016-11-26T16:04:44.287Z,11
2016-11-26T16:06:02.431Z,11.01
2016-11-26T16:07:21.266Z,11.01
2016-11-26T16:08:37.022Z,11.01
2016-11-26T16:09:55.664Z,11.01
2016-11-26T16:11:15.440Z,11.02
2016-11-26T16:12:32.270Z,11.04
2016-11-26T16:13:47.222Z,11.04
2016-11-26T16:15:03.505Z,11.02
2016-11-26T16:16:34.502Z,11.05
2016-11-26T16:18:06.876Z,11.02
2016-11-26T16:19:52.988Z,11.05
2016-11-26T16:21:10.827Z,11.05
2016-11-26T16:22:27.353Z,11.06
2016-11-26T16:23:42.518Z,11.07
2016-11-26T16:24:59.753Z,11.07
2016-11-26T16:26:19.193Z,11.07
2016-11-26T16:27:49.506Z,11.08
2016-11-26T16:29:06.759Z,11.07
2016-11-26T16:30:23.340Z,11.09
2016-11-26T16:31:38.273Z,11.07
2016-11-26T16:32:53.069Z,11.09
2016-11-26T16:34:09.270Z,11.09
2016-11-26T16:35:24.898Z,11.1
2016-11-26T16:36:40.848Z,11.1
2016-11-26T16:37:55.496Z,11.13
2016-11-26T16:39:10.387Z,11.14
2016-11-26T16:40:26.036Z,11.15
2016-11-26T16:41:43.188Z,11.15
2016-11-26T16:42:57.871Z,11.13
2016-11-26T16:44:16.463Z,11.12
2016-11-26T16:45:49.580Z,11.11
2016-11-26T16:47:21.084Z,11.1
2016-11-26T16:48:38.767Z,11.08
2016-11-26T16:49:56.916Z,11.08
2016-11-26T16:51:27.764Z,11.07